KSIK Airport (Sikeston Memorial Muni) Information

FAA: SIK - ICAO: KSIK

KSIK Airport Location

State Missouri
County Scott
City Sikeston
KSIK Airport is 2 miles northeast of Sikeston, MO.
Latitude 36-53-56.0000N
Longitude 089-33-42.3000W
Elevation 314ft

KSIK Airport METARs

METAR KSIK 240815Z AUTO 00000KT 10SM CLR 10/10 A3009 RMK AO2 TSNO
Altimeter 30.09"
Temperature 10.0°C (50.0°F)
Wind 0° at 0KT
Clouds Skies are clear.
Visibility 10.0mi
Time observed: 2021-09-24T08:15:00Z

KSIK Airport Details

Status Operational
Activation April 1940
Ownership Public
Usage Public
Chart ST LOUIS
ATC on-site No
Beacon schedule sunset-sunrise
Beacon color clear green

KSIK Airport Contacts

Owner CITY OF SIKESTON
Owner address 105 E CENTER, SIKESTON, MO 63801
Owner phone 573-471-2512
Manager BOB CAMERON
Manager address 3127 CREVE COEUR MILL RD, ST LOUIS, MO 63146
Manager phone 314-878-9575

KSIK Airport (Sikeston Memorial Muni) Radio Frequencies

KSIK (Airport) Radio Frequencies

UNICOM 122.8
Common traffic advisory frequency (CTAF) 122.8